createdAt,value
2019-02-21T00:00:45.044Z,0.00
2019-02-21T00:01:45.058Z,0.00
2019-02-21T00:02:45.056Z,0.00
2019-02-21T00:03:45.012Z,0.00
2019-02-21T00:04:44.997Z,0.00
2019-02-21T00:05:45.004Z,0.00
2019-02-21T00:06:45.008Z,0.00
2019-02-21T00:07:44.963Z,0.00
2019-02-21T00:08:44.968Z,0.00
2019-02-21T00:09:44.942Z,0.00
2019-02-21T00:10:44.930Z,0.00
2019-02-21T00:11:44.941Z,0.00
2019-02-21T00:12:44.911Z,0.00
2019-02-21T00:13:44.900Z,0.00
2019-02-21T00:14:44.920Z,0.00
2019-02-21T00:15:44.876Z,0.00
2019-02-21T00:16:44.887Z,0.00
2019-02-21T00:17:44.851Z,0.00
2019-02-21T00:18:44.856Z,0.00
2019-02-21T00:19:44.829Z,0.00
2019-02-21T00:20:44.859Z,0.00
2019-02-21T00:21:44.835Z,0.00
2019-02-21T00:22:44.796Z,0.00
2019-02-21T00:23:44.790Z,0.00
2019-02-21T00:24:44.773Z,0.00
2019-02-21T00:25:44.762Z,0.00
2019-02-21T00:26:44.798Z,0.00
2019-02-21T00:27:44.746Z,0.00
2019-02-21T00:28:44.729Z,0.00
2019-02-21T00:29:44.721Z,0.00
2019-02-21T00:30:44.708Z,0.00
2019-02-21T00:31:44.719Z,0.00
2019-02-21T00:32:44.715Z,0.00
2019-02-21T00:33:44.683Z,0.00
2019-02-21T00:34:44.662Z,0.00
2019-02-21T00:35:44.652Z,0.00
2019-02-21T00:36:44.663Z,0.00
2019-02-21T00:37:44.629Z,0.00
2019-02-21T00:38:44.633Z,0.00
2019-02-21T00:39:44.608Z,0.00
2019-02-21T00:40:44.602Z,0.00
2019-02-21T00:41:44.612Z,0.00
2019-02-21T00:42:44.574Z,0.00
2019-02-21T00:43:44.569Z,0.00
2019-02-21T00:44:44.599Z,0.00
2019-02-21T00:45:44.541Z,0.00
2019-02-21T00:46:44.535Z,0.00
2019-02-21T00:47:44.574Z,0.00
2019-02-21T00:48:44.508Z,0.00
2019-02-21T00:49:44.506Z,0.00
2019-02-21T00:50:44.506Z,0.00
2019-02-21T00:51:44.478Z,0.00
2019-02-21T00:52:44.487Z,0.00
2019-02-21T00:53:44.454Z,0.00
2019-02-21T00:54:44.442Z,0.00
2019-02-21T00:55:44.457Z,0.00
2019-02-21T00:56:44.422Z,0.00
2019-02-21T00:57:44.432Z,0.00
2019-02-21T00:58:44.402Z,0.00
2019-02-21T00:59:44.390Z,0.00
2019-02-21T01:00:46.810Z,0.00
2019-02-21T01:01:44.399Z,0.00
2019-02-21T01:02:44.389Z,0.00
2019-02-21T01:03:44.344Z,0.00
2019-02-21T01:04:44.334Z,0.00
2019-02-21T01:05:44.325Z,0.00
2019-02-21T01:06:44.313Z,0.00
2019-02-21T01:07:44.436Z,0.00
2019-02-21T01:08:44.291Z,0.00
2019-02-21T01:09:44.280Z,0.00
2019-02-21T01:10:44.270Z,0.00
2019-02-21T01:11:44.257Z,0.00
2019-02-21T01:12:44.276Z,0.00
2019-02-21T01:13:44.239Z,0.00
2019-02-21T01:14:44.241Z,0.00
2019-02-21T01:15:44.224Z,0.00
2019-02-21T01:16:44.204Z,0.00
2019-02-21T01:17:44.219Z,0.00
2019-02-21T01:18:44.185Z,0.00
2019-02-21T01:19:44.173Z,0.00
2019-02-21T01:20:44.159Z,0.00
2019-02-21T01:21:44.163Z,0.00
2019-02-21T01:22:44.162Z,0.00
2019-02-21T01:23:44.126Z,0.00
2019-02-21T01:24:44.114Z,0.00
2019-02-21T01:25:44.106Z,0.00
2019-02-21T01:26:44.092Z,0.00
2019-02-21T01:27:44.129Z,0.00
2019-02-21T01:28:44.078Z,0.00
2019-02-21T01:29:44.127Z,0.00
2019-02-21T01:30:44.047Z,0.00
2019-02-21T01:31:44.035Z,0.00
2019-02-21T01:32:44.050Z,0.00
2019-02-21T01:33:44.057Z,0.00
2019-02-21T01:34:44.002Z,0.00
2019-02-21T01:35:43.995Z,0.00
2019-02-21T01:36:43.982Z,0.00
2019-02-21T01:37:43.993Z,0.00
2019-02-21T01:38:44.014Z,0.00
2019-02-21T01:39:43.974Z,0.00
2019-02-21T01:40:43.939Z,0.00
2019-02-21T01:41:43.927Z,0.00
2019-02-21T01:42:43.946Z,0.00
2019-02-21T01:43:43.915Z,0.00
2019-02-21T01:44:43.894Z,0.00
2019-02-21T01:45:43.933Z,0.00
2019-02-21T01:46:43.868Z,0.00
2019-02-21T01:47:43.880Z,0.00
2019-02-21T01:48:43.852Z,0.00
2019-02-21T01:49:43.838Z,0.00
2019-02-21T01:50:43.826Z,0.00
2019-02-21T01:51:43.825Z,0.00
2019-02-21T01:52:43.827Z,0.00
2019-02-21T01:53:43.789Z,0.00
2019-02-21T01:54:43.781Z,0.00
2019-02-21T01:55:43.767Z,0.00
2019-02-21T01:56:43.765Z,0.00
2019-02-21T01:57:43.769Z,0.00
2019-02-21T01:58:43.748Z,0.00
2019-02-21T01:59:43.724Z,0.00
2019-02-21T02:00:43.862Z,0.00
2019-02-21T02:01:43.703Z,0.00
2019-02-21T02:02:43.714Z,0.00
2019-02-21T02:03:43.678Z,0.00
2019-02-21T02:04:43.689Z,0.00
2019-02-21T02:05:43.656Z,0.00
2019-02-21T02:06:43.644Z,0.00
2019-02-21T02:07:43.657Z,0.00
2019-02-21T02:08:43.623Z,0.00
2019-02-21T02:09:43.612Z,0.00
2019-02-21T02:10:43.618Z,0.00
2019-02-21T02:11:43.590Z,0.00
2019-02-21T02:12:43.603Z,0.00
2019-02-21T02:13:43.567Z,0.00
2019-02-21T02:14:43.556Z,0.00
2019-02-21T02:15:43.547Z,0.00
2019-02-21T02:16:43.552Z,0.00
2019-02-21T02:17:43.546Z,0.00
2019-02-21T02:18:43.514Z,0.00
2019-02-21T02:19:43.503Z,0.00
2019-02-21T02:20:43.487Z,0.00
2019-02-21T02:21:43.483Z,0.00
2019-02-21T02:22:43.509Z,0.00
2019-02-21T02:23:43.454Z,0.00
2019-02-21T02:24:43.447Z,0.00
2019-02-21T02:25:43.439Z,0.00
2019-02-21T02:26:43.420Z,0.00
2019-02-21T02:27:43.435Z,0.00
2019-02-21T02:28:43.414Z,0.00
2019-02-21T02:29:43.387Z,0.00
2019-02-21T02:30:43.375Z,0.00
2019-02-21T02:31:43.366Z,0.00
2019-02-21T02:32:43.377Z,0.00
2019-02-21T02:33:43.343Z,0.00
2019-02-21T02:34:43.345Z,0.00
2019-02-21T02:35:43.323Z,0.00
2019-02-21T02:36:43.312Z,0.00
2019-02-21T02:37:43.335Z,0.00
2019-02-21T02:38:43.289Z,0.00
2019-02-21T02:39:43.279Z,0.00
2019-02-21T02:40:43.290Z,0.00
2019-02-21T02:41:43.256Z,0.00
2019-02-21T02:42:43.268Z,0.00
2019-02-21T02:43:43.243Z,0.00
2019-02-21T02:44:43.224Z,0.00
2019-02-21T02:45:43.217Z,0.00
2019-02-21T02:46:43.213Z,0.00
2019-02-21T02:47:43.325Z,0.00
2019-02-21T02:48:43.183Z,0.00
2019-02-21T02:49:43.170Z,0.00
2019-02-21T02:50:43.163Z,0.00
2019-02-21T02:51:43.145Z,0.00
2019-02-21T02:52:43.153Z,0.00
2019-02-21T02:53:43.149Z,0.00
2019-02-21T02:54:43.117Z,0.00
2019-02-21T02:55:43.102Z,0.00
2019-02-21T02:56:43.099Z,0.00
2019-02-21T02:57:43.081Z,0.00
2019-02-21T02:58:45.474Z,0.00
2019-02-21T02:59:43.061Z,0.00
2019-02-21T03:00:43.060Z,0.00
2019-02-21T03:01:43.036Z,0.00
2019-02-21T03:02:43.027Z,0.00
2019-02-21T03:03:43.042Z,0.00
2019-02-21T03:04:43.035Z,0.00
2019-02-21T03:05:42.997Z,0.00
2019-02-21T03:06:42.983Z,0.00
2019-02-21T03:07:42.972Z,0.00
2019-02-21T03:08:42.986Z,0.00
2019-02-21T03:09:42.950Z,0.00
2019-02-21T03:10:42.964Z,0.00
2019-02-21T03:11:42.929Z,0.00
2019-02-21T03:12:42.919Z,0.00
2019-02-21T03:13:42.927Z,0.00
2019-02-21T03:14:42.901Z,0.00
2019-02-21T03:15:42.883Z,0.00
2019-02-21T03:16:42.899Z,0.00
2019-02-21T03:17:42.968Z,0.00
2019-02-21T03:18:42.874Z,0.00
2019-02-21T03:19:42.840Z,0.00
2019-02-21T03:20:42.830Z,0.00
2019-02-21T03:21:42.818Z,0.00
2019-02-21T03:22:42.848Z,0.00
2019-02-21T03:23:42.819Z,0.00
2019-02-21T03:24:42.784Z,0.00
2019-02-21T03:25:42.775Z,0.00
2019-02-21T03:26:42.763Z,0.00
2019-02-21T03:27:42.756Z,0.00
2019-02-21T03:28:42.796Z,0.00
2019-02-21T03:29:42.732Z,0.00
2019-02-21T03:30:42.732Z,0.00
2019-02-21T03:31:54.155Z,0.00
2019-02-21T03:32:43.698Z,0.00
2019-02-21T03:33:42.710Z,0.00
2019-02-21T03:34:42.691Z,0.00
2019-02-21T03:35:42.665Z,0.00
2019-02-21T03:36:42.659Z,0.00
2019-02-21T03:37:42.645Z,0.00
2019-02-21T03:38:42.669Z,0.00
2019-02-21T03:39:42.623Z,0.00
2019-02-21T03:40:42.622Z,0.00
2019-02-21T03:41:42.599Z,0.00
2019-02-21T03:42:42.589Z,0.00
2019-02-21T03:43:42.613Z,0.00
2019-02-21T03:44:42.565Z,0.00
2019-02-21T03:45:42.570Z,0.00
2019-02-21T03:46:42.575Z,0.00
2019-02-21T03:47:42.534Z,0.00
2019-02-21T03:48:42.548Z,0.00
2019-02-21T03:49:42.527Z,0.00
2019-02-21T03:50:42.536Z,0.00
2019-02-21T03:51:42.489Z,0.00
2019-02-21T03:52:42.493Z,0.00
2019-02-21T03:53:42.491Z,0.00
2019-02-21T03:54:42.459Z,0.00
2019-02-21T03:55:42.445Z,0.00
2019-02-21T03:56:42.542Z,0.00
2019-02-21T03:57:42.459Z,0.00
2019-02-21T03:58:42.436Z,0.00
2019-02-21T03:59:42.401Z,0.00
2019-02-21T04:00:42.393Z,0.00
2019-02-21T04:01:42.381Z,0.00
2019-02-21T04:02:42.371Z,0.00
2019-02-21T04:03:42.385Z,0.00
2019-02-21T04:04:42.349Z,0.00
2019-02-21T04:05:42.349Z,0.00
2019-02-21T04:06:42.329Z,0.00
2019-02-21T04:07:42.313Z,0.00
2019-02-21T04:08:42.327Z,0.00
2019-02-21T04:09:42.322Z,0.00
2019-02-21T04:10:42.281Z,0.00
2019-02-21T04:11:42.282Z,0.00
2019-02-21T04:12:42.259Z,0.00
2019-02-21T04:13:42.270Z,0.00
2019-02-21T04:14:42.235Z,0.00
2019-02-21T04:15:42.253Z,0.00
2019-02-21T04:16:42.218Z,0.00
2019-02-21T04:17:42.210Z,0.00
2019-02-21T04:18:42.216Z,0.00
2019-02-21T04:19:42.198Z,0.00
2019-02-21T04:20:42.170Z,0.00
2019-02-21T04:21:42.170Z,0.00
2019-02-21T04:22:42.149Z,0.00
2019-02-21T04:23:42.160Z,0.00
2019-02-21T04:24:42.126Z,0.00
2019-02-21T04:25:42.114Z,0.00
2019-02-21T04:26:42.105Z,0.00
2019-02-21T04:27:42.100Z,0.00
2019-02-21T04:28:42.107Z,0.00
2019-02-21T04:29:42.073Z,0.00
2019-02-21T04:30:42.064Z,0.00
2019-02-21T04:31:42.048Z,0.00
2019-02-21T04:32:42.042Z,0.00
2019-02-21T04:33:42.066Z,0.00
2019-02-21T04:34:42.018Z,0.00
2019-02-21T04:35:42.010Z,0.00
2019-02-21T04:36:41.994Z,0.00
2019-02-21T04:37:41.983Z,0.00
2019-02-21T04:38:41.995Z,0.00
2019-02-21T04:39:41.978Z,0.00
2019-02-21T04:40:41.950Z,0.00
2019-02-21T04:41:41.941Z,0.00
2019-02-21T04:42:41.929Z,0.00
2019-02-21T04:43:41.941Z,0.00
2019-02-21T04:44:41.906Z,0.00
2019-02-21T04:45:41.911Z,0.00
2019-02-21T04:46:41.882Z,0.00
2019-02-21T04:47:41.871Z,0.00
2019-02-21T04:48:41.886Z,0.00
2019-02-21T04:49:41.851Z,0.00
2019-02-21T04:50:41.918Z,0.00
2019-02-21T04:51:41.875Z,0.00
2019-02-21T04:52:41.815Z,0.00
2019-02-21T04:53:42.117Z,0.00
2019-02-21T04:54:41.792Z,0.00
2019-02-21T04:55:41.784Z,0.00
2019-02-21T04:56:41.771Z,0.00
2019-02-21T04:57:41.779Z,0.00
2019-02-21T04:58:41.762Z,0.00
2019-02-21T04:59:41.763Z,0.00
2019-02-21T05:00:41.775Z,0.00
2019-02-21T05:01:41.719Z,0.00
2019-02-21T05:02:41.705Z,0.00
2019-02-21T05:03:41.716Z,0.00
2019-02-21T05:04:41.709Z,0.00
2019-02-21T05:05:41.692Z,0.00
2019-02-21T05:06:41.660Z,0.00
2019-02-21T05:07:41.651Z,0.00
2019-02-21T05:08:41.639Z,0.00
2019-02-21T05:09:41.666Z,0.00
2019-02-21T05:10:41.619Z,0.00
2019-02-21T05:11:41.645Z,0.00
2019-02-21T05:12:41.600Z,0.00
2019-02-21T05:13:41.582Z,0.00
2019-02-21T05:14:41.603Z,0.00
2019-02-21T05:15:41.577Z,0.00
2019-02-21T05:16:41.550Z,0.00
2019-02-21T05:17:41.540Z,0.00
2019-02-21T05:18:41.526Z,0.00
2019-02-21T05:19:41.539Z,0.00
2019-02-21T05:20:41.505Z,0.00
2019-02-21T05:21:41.533Z,0.00
2019-02-21T05:22:41.482Z,0.00
2019-02-21T05:23:41.473Z,0.00
2019-02-21T05:24:41.488Z,0.00
2019-02-21T05:25:41.449Z,0.00
2019-02-21T05:26:41.438Z,0.00
2019-02-21T05:27:41.436Z,0.00
2019-02-21T05:28:41.418Z,0.00
2019-02-21T05:29:41.418Z,0.00
2019-02-21T05:30:41.428Z,0.00
2019-02-21T05:31:41.392Z,0.00
2019-02-21T05:32:41.484Z,0.00
2019-02-21T05:33:41.387Z,0.00
2019-02-21T05:34:41.356Z,0.00
2019-02-21T05:35:41.375Z,0.00
2019-02-21T05:36:41.337Z,0.00
2019-02-21T05:37:41.319Z,0.00
2019-02-21T05:38:41.306Z,0.00
2019-02-21T05:39:41.314Z,0.00
2019-02-21T05:40:42.145Z,0.00
2019-02-21T05:41:41.278Z,0.00
2019-02-21T05:42:41.279Z,0.00
2019-02-21T05:43:41.252Z,0.00
2019-02-21T05:44:41.239Z,0.00
2019-02-21T05:45:41.325Z,0.00
2019-02-21T05:46:41.219Z,0.00
2019-02-21T05:47:41.206Z,0.00
2019-02-21T05:48:41.193Z,0.00
2019-02-21T05:49:41.187Z,0.00
2019-02-21T05:50:41.208Z,0.00
2019-02-21T05:51:41.182Z,0.00
2019-02-21T05:52:41.150Z,0.00
2019-02-21T05:53:41.145Z,0.00
2019-02-21T05:54:41.129Z,0.00
2019-02-21T05:55:41.143Z,0.00
2019-02-21T05:56:41.120Z,0.00
2019-02-21T05:57:41.104Z,0.00
2019-02-21T05:58:41.086Z,0.00
2019-02-21T05:59:41.076Z,0.00
2019-02-21T06:00:41.088Z,0.00
2019-02-21T06:01:41.052Z,0.00
2019-02-21T06:02:52.545Z,4.00
2019-02-21T06:03:42.039Z,4.00
2019-02-21T06:04:41.020Z,4.00
2019-02-21T06:05:41.029Z,0.00
2019-02-21T06:06:40.996Z,4.00
2019-02-21T06:07:40.988Z,4.00
2019-02-21T06:08:40.976Z,8.00
2019-02-21T06:09:40.976Z,4.00
2019-02-21T06:10:40.982Z,4.00
2019-02-21T06:11:40.949Z,8.00
2019-02-21T06:12:40.928Z,12.00
2019-02-21T06:13:40.924Z,12.00
2019-02-21T06:14:40.908Z,12.00
2019-02-21T06:15:40.944Z,12.00
2019-02-21T06:16:40.886Z,16.00
2019-02-21T06:17:40.875Z,20.00
2019-02-21T06:18:40.866Z,24.00
2019-02-21T06:19:40.861Z,28.00
2019-02-21T06:20:40.858Z,36.00
2019-02-21T06:21:40.899Z,40.00
2019-02-21T06:22:40.827Z,48.00
2019-02-21T06:23:40.811Z,56.00
2019-02-21T06:24:40.799Z,68.00
2019-02-21T06:25:50.803Z,76.00
2019-02-21T06:26:41.801Z,88.00
2019-02-21T06:27:40.779Z,100.00
2019-02-21T06:28:40.765Z,116.00
2019-02-21T06:29:40.745Z,136.00
2019-02-21T06:30:43.280Z,164.00
2019-02-21T06:31:40.746Z,184.00
2019-02-21T06:32:41.012Z,208.00
2019-02-21T06:33:40.702Z,232.00
2019-02-21T06:34:40.707Z,252.00
2019-02-21T06:35:40.730Z,272.00
2019-02-21T06:36:40.695Z,300.00
2019-02-21T06:37:40.665Z,328.00
2019-02-21T06:38:40.647Z,360.00
2019-02-21T06:39:40.637Z,388.00
2019-02-21T06:40:40.642Z,420.00
2019-02-21T06:41:42.699Z,448.00
2019-02-21T06:42:40.603Z,484.00
2019-02-21T06:43:40.592Z,512.00
2019-02-21T06:44:40.585Z,548.00
2019-02-21T06:45:40.574Z,576.00
2019-02-21T06:46:40.615Z,608.00
2019-02-21T06:47:40.550Z,636.00
2019-02-21T06:48:40.538Z,664.00
2019-02-21T06:49:40.852Z,692.00
2019-02-21T06:50:40.541Z,728.00
2019-02-21T06:51:40.530Z,768.00
2019-02-21T06:52:40.804Z,804.00
2019-02-21T06:53:40.501Z,840.00
2019-02-21T06:54:40.472Z,880.00
2019-02-21T06:55:40.465Z,920.00
2019-02-21T06:56:40.473Z,964.00
2019-02-21T06:57:40.438Z,1012.00
2019-02-21T06:58:42.174Z,1056.00
2019-02-21T06:59:43.496Z,1112.00
2019-02-21T07:00:40.411Z,1176.00
2019-02-21T07:01:40.418Z,1244.00
2019-02-21T07:02:40.388Z,1316.00
2019-02-21T07:03:40.375Z,1392.00
2019-02-21T07:04:40.384Z,1460.00
2019-02-21T07:05:40.371Z,1524.00
2019-02-21T07:06:40.365Z,1580.00
2019-02-21T07:07:40.335Z,1612.00
2019-02-21T07:08:40.347Z,1636.00
2019-02-21T07:09:40.314Z,1660.00
2019-02-21T07:10:40.297Z,1664.00
2019-02-21T07:11:40.339Z,1648.00
2019-02-21T07:12:40.285Z,1620.00
2019-02-21T07:13:40.264Z,1572.00
2019-02-21T07:14:40.276Z,1524.00
2019-02-21T07:15:40.243Z,1488.00
2019-02-21T07:16:40.231Z,1464.00
2019-02-21T07:17:48.837Z,1436.00
2019-02-21T07:18:41.220Z,1400.00
2019-02-21T07:19:40.199Z,1340.00
2019-02-21T07:20:40.188Z,1292.00
2019-02-21T07:21:40.175Z,1256.00
2019-02-21T07:22:40.198Z,1240.00
2019-02-21T07:23:43.360Z,1232.00
2019-02-21T07:24:40.164Z,1260.00
2019-02-21T07:25:40.130Z,1256.00
2019-02-21T07:26:42.699Z,1264.00
2019-02-21T07:27:40.139Z,1308.00
2019-02-21T07:28:41.724Z,1356.00
2019-02-21T07:29:42.426Z,1384.00
2019-02-21T07:30:40.077Z,1412.00
2019-02-21T07:31:40.065Z,1452.00
2019-02-21T07:32:40.154Z,1492.00
2019-02-21T07:33:40.043Z,1524.00
2019-02-21T07:34:40.039Z,1608.00
2019-02-21T07:35:40.027Z,1704.00
2019-02-21T07:36:40.009Z,1752.00
2019-02-21T07:37:42.206Z,1812.00
2019-02-21T07:38:40.005Z,1868.00
2019-02-21T07:39:39.977Z,1856.00
2019-02-21T07:40:39.985Z,1804.00
2019-02-21T07:41:41.702Z,1780.00
2019-02-21T07:42:39.966Z,1784.00
2019-02-21T07:43:39.930Z,1768.00
2019-02-21T07:44:39.921Z,1716.00
2019-02-21T07:45:39.909Z,1708.00
2019-02-21T07:46:39.899Z,1748.00
2019-02-21T07:47:39.933Z,1864.00
2019-02-21T07:48:39.875Z,2044.00
2019-02-21T07:49:39.866Z,2228.00
2019-02-21T07:50:39.855Z,2388.00
2019-02-21T07:51:41.485Z,2444.00
2019-02-21T07:52:39.854Z,2448.00
2019-02-21T07:53:39.841Z,2448.00
2019-02-21T07:54:39.812Z,2492.00
2019-02-21T07:55:39.800Z,2608.00
2019-02-21T07:56:42.320Z,2724.00
2019-02-21T07:57:39.805Z,2808.00
2019-02-21T07:58:39.784Z,2892.00
2019-02-21T07:59:39.769Z,2928.00
2019-02-21T08:00:39.743Z,2888.00
2019-02-21T08:01:39.733Z,2872.00
2019-02-21T08:02:39.746Z,2904.00
2019-02-21T08:03:44.407Z,3044.00
2019-02-21T08:04:40.703Z,3080.00
2019-02-21T08:05:39.695Z,3012.00
2019-02-21T08:06:39.683Z,3036.00
2019-02-21T08:07:39.690Z,3096.00
2019-02-21T08:08:39.658Z,3104.00
2019-02-21T08:09:41.604Z,3352.00
2019-02-21T08:10:39.663Z,3664.00
2019-02-21T08:11:39.625Z,4020.00
2019-02-21T08:12:40.598Z,4300.00
2019-02-21T08:13:39.604Z,4368.00
2019-02-21T08:14:39.589Z,4272.00
2019-02-21T08:15:39.580Z,4132.00
2019-02-21T08:16:39.577Z,4140.00
2019-02-21T08:17:39.559Z,4164.00
2019-02-21T08:18:39.600Z,4208.00
2019-02-21T08:19:39.541Z,4192.00
2019-02-21T08:20:41.092Z,4172.00
2019-02-21T08:21:39.652Z,4140.00
2019-02-21T08:22:39.501Z,4192.00
2019-02-21T08:23:49.651Z,4260.00
2019-02-21T08:24:40.486Z,4232.00
2019-02-21T08:25:39.471Z,4088.00
2019-02-21T08:26:39.457Z,4172.00
2019-02-21T08:27:39.445Z,4384.00
2019-02-21T08:28:39.457Z,4480.00
2019-02-21T08:29:39.423Z,4456.00
2019-02-21T08:30:39.423Z,4556.00
2019-02-21T08:31:39.421Z,4580.00
2019-02-21T08:32:39.451Z,4692.00
2019-02-21T08:33:39.403Z,4968.00
2019-02-21T08:34:39.379Z,5208.00
2019-02-21T08:35:39.361Z,5476.00
2019-02-21T08:36:39.350Z,5684.00
2019-02-21T08:37:39.335Z,5628.00
2019-02-21T08:38:39.471Z,5584.00
2019-02-21T08:39:39.313Z,5504.00
2019-02-21T08:40:39.304Z,5372.00
2019-02-21T08:41:39.291Z,5268.00
2019-02-21T08:42:39.286Z,5084.00
2019-02-21T08:43:39.295Z,4872.00
2019-02-21T08:44:39.257Z,4880.00
2019-02-21T08:45:39.246Z,5208.00
2019-02-21T08:46:39.260Z,5528.00
2019-02-21T08:47:39.236Z,5636.00
2019-02-21T08:48:40.563Z,5648.00
2019-02-21T08:49:39.207Z,5712.00
2019-02-21T08:50:39.195Z,5764.00
2019-02-21T08:51:39.181Z,5864.00
2019-02-21T08:52:39.169Z,5960.00
2019-02-21T08:53:39.185Z,6100.00
2019-02-21T08:54:39.175Z,6228.00
2019-02-21T08:55:40.468Z,6356.00
2019-02-21T08:56:39.139Z,6476.00
2019-02-21T08:57:39.113Z,6436.00
2019-02-21T08:58:39.168Z,6676.00
2019-02-21T08:59:39.091Z,6908.00
2019-02-21T09:00:39.124Z,7164.00
2019-02-21T09:01:39.080Z,7464.00
2019-02-21T09:02:39.057Z,7796.00
2019-02-21T09:03:39.078Z,7804.00
2019-02-21T09:04:39.036Z,7392.00
2019-02-21T09:05:39.047Z,6608.00
2019-02-21T09:06:39.015Z,5732.00
2019-02-21T09:07:39.002Z,5460.00
2019-02-21T09:08:39.016Z,5432.00
2019-02-21T09:09:38.995Z,5744.00
2019-02-21T09:10:38.970Z,6288.00
2019-02-21T09:11:38.967Z,6836.00
2019-02-21T09:12:38.951Z,6968.00
2019-02-21T09:13:41.524Z,6820.00
2019-02-21T09:14:38.925Z,6800.00
2019-02-21T09:15:38.922Z,6736.00
2019-02-21T09:16:38.905Z,6412.00
2019-02-21T09:17:38.891Z,6204.00
2019-02-21T09:18:39.349Z,6116.00
2019-02-21T09:19:38.994Z,6068.00
2019-02-21T09:20:38.907Z,6196.00
2019-02-21T09:21:38.899Z,6640.00
2019-02-21T09:22:38.896Z,7240.00
2019-02-21T09:23:38.864Z,7548.00
2019-02-21T09:24:42.167Z,7976.00
2019-02-21T09:25:38.837Z,8328.00
2019-02-21T09:26:38.844Z,8620.00
2019-02-21T09:27:38.832Z,8860.00
2019-02-21T09:28:38.819Z,9036.00
2019-02-21T09:29:38.877Z,9180.00
2019-02-21T09:30:38.750Z,9360.00
2019-02-21T09:31:38.743Z,9360.00
2019-02-21T09:32:38.748Z,9260.00
2019-02-21T09:33:38.735Z,8752.00
2019-02-21T09:34:38.768Z,7932.00
2019-02-21T09:35:38.722Z,7112.00
2019-02-21T09:36:38.681Z,6524.00
2019-02-21T09:37:38.686Z,6340.00
2019-02-21T09:38:38.721Z,6340.00
2019-02-21T09:39:38.678Z,6492.00
2019-02-21T09:40:38.637Z,6724.00
2019-02-21T09:41:38.644Z,6888.00
2019-02-21T09:42:38.617Z,6932.00
2019-02-21T09:43:38.608Z,6996.00
2019-02-21T09:44:38.619Z,7056.00
2019-02-21T09:45:38.623Z,6892.00
2019-02-21T09:46:40.597Z,6624.00
2019-02-21T09:47:38.575Z,6324.00
2019-02-21T09:48:38.550Z,6020.00
2019-02-21T09:49:38.568Z,5768.00
2019-02-21T09:50:38.535Z,5544.00
2019-02-21T09:51:38.526Z,5288.00
2019-02-21T09:52:38.504Z,5028.00
2019-02-21T09:53:38.497Z,4816.00
2019-02-21T09:54:38.504Z,4664.00
2019-02-21T09:55:38.475Z,4460.00
2019-02-21T09:56:38.464Z,4416.00
2019-02-21T09:57:38.449Z,4272.00
2019-02-21T09:58:38.460Z,3908.00
2019-02-21T09:59:38.455Z,3860.00
2019-02-21T10:00:38.418Z,3860.00
2019-02-21T10:01:38.403Z,3788.00
2019-02-21T10:02:38.398Z,3784.00
2019-02-21T10:03:38.380Z,3984.00
2019-02-21T10:04:38.404Z,3940.00
2019-02-21T10:05:38.364Z,3672.00
2019-02-21T10:06:38.350Z,3428.00
2019-02-21T10:07:38.353Z,3052.00
2019-02-21T10:08:38.381Z,2840.00
2019-02-21T10:09:38.319Z,2884.00
2019-02-21T10:10:38.327Z,3248.00
2019-02-21T10:11:38.293Z,3792.00
2019-02-21T10:12:38.283Z,4336.00
2019-02-21T10:13:38.282Z,4728.00
2019-02-21T10:14:38.258Z,5136.00
2019-02-21T10:15:38.271Z,5688.00
2019-02-21T10:16:38.254Z,6168.00
2019-02-21T10:17:38.242Z,6256.00
2019-02-21T10:18:38.234Z,6040.00
2019-02-21T10:19:38.204Z,5988.00
2019-02-21T10:20:38.222Z,6288.00
2019-02-21T10:21:38.202Z,6856.00
2019-02-21T10:22:38.168Z,7560.00
2019-02-21T10:23:38.157Z,8500.00
2019-02-21T10:24:38.176Z,9052.00
2019-02-21T10:25:38.178Z,9376.00
2019-02-21T10:26:38.127Z,9640.00
2019-02-21T10:27:38.138Z,9488.00
2019-02-21T10:28:38.111Z,8924.00
2019-02-21T10:29:38.092Z,8204.00
2019-02-21T10:30:38.221Z,7716.00
2019-02-21T10:31:38.080Z,7504.00
2019-02-21T10:32:38.087Z,7544.00
2019-02-21T10:33:46.509Z,7648.00
2019-02-21T10:34:43.008Z,7796.00
2019-02-21T10:35:38.036Z,7932.00
2019-02-21T10:36:38.112Z,8140.00
2019-02-21T10:37:38.002Z,8368.00
2019-02-21T10:38:37.987Z,8688.00
2019-02-21T10:39:37.983Z,8968.00
2019-02-21T10:40:37.992Z,9324.00
2019-02-21T10:41:38.006Z,9728.00
2019-02-21T10:42:37.944Z,9928.00
2019-02-21T10:43:37.934Z,10048.00
2019-02-21T10:44:37.919Z,10264.00
2019-02-21T10:45:47.461Z,10316.00
2019-02-21T10:46:38.924Z,10432.00
2019-02-21T10:47:37.907Z,10640.00
2019-02-21T10:48:38.251Z,11436.00
2019-02-21T10:49:37.897Z,11836.00
2019-02-21T10:50:37.892Z,11968.00
2019-02-21T10:51:37.977Z,11140.00
2019-02-21T10:52:38.010Z,10232.00
2019-02-21T10:53:37.820Z,9844.00
2019-02-21T10:54:37.856Z,9580.00
2019-02-21T10:55:37.851Z,8688.00
2019-02-21T10:56:37.813Z,7684.00
2019-02-21T10:57:37.778Z,7000.00
2019-02-21T10:58:37.767Z,6856.00
2019-02-21T10:59:46.195Z,6624.00
2019-02-21T11:00:38.742Z,6468.00
2019-02-21T11:01:37.774Z,6304.00
2019-02-21T11:02:37.736Z,6032.00
2019-02-21T11:03:37.708Z,6080.00
2019-02-21T11:04:37.697Z,6780.00
2019-02-21T11:05:37.701Z,8304.00
2019-02-21T11:06:37.701Z,9916.00
2019-02-21T11:07:37.665Z,11176.00
2019-02-21T11:08:37.654Z,11936.00
2019-02-21T11:09:37.643Z,13020.00
2019-02-21T11:10:37.635Z,13176.00
2019-02-21T11:11:37.648Z,13188.00
2019-02-21T11:12:37.608Z,12004.00
2019-02-21T11:13:37.599Z,9492.00
2019-02-21T11:14:47.181Z,7072.00
2019-02-21T11:15:38.584Z,5228.00
2019-02-21T11:16:37.594Z,4120.00
2019-02-21T11:17:37.564Z,3516.00
2019-02-21T11:18:37.557Z,3144.00
2019-02-21T11:19:37.533Z,3028.00
2019-02-21T11:20:37.548Z,3040.00
2019-02-21T11:21:37.585Z,3024.00
2019-02-21T11:22:37.511Z,3104.00
2019-02-21T11:23:37.500Z,3212.00
2019-02-21T11:24:37.514Z,3276.00
2019-02-21T11:25:37.530Z,3372.00
2019-02-21T11:26:37.525Z,3848.00
2019-02-21T11:27:37.577Z,4860.00
2019-02-21T11:28:37.437Z,6220.00
2019-02-21T11:29:37.422Z,6852.00
2019-02-21T11:30:37.409Z,7592.00
2019-02-21T11:31:37.415Z,9160.00
2019-02-21T11:32:37.413Z,9096.00
2019-02-21T11:33:37.396Z,9944.00
2019-02-21T11:34:38.187Z,10108.00
2019-02-21T11:35:37.353Z,10200.00
2019-02-21T11:36:37.353Z,10388.00
2019-02-21T11:37:44.232Z,11744.00
2019-02-21T11:38:38.333Z,12340.00
2019-02-21T11:39:37.437Z,12944.00
2019-02-21T11:40:37.327Z,12304.00
2019-02-21T11:41:37.323Z,12128.00
2019-02-21T11:42:37.429Z,13476.00
2019-02-21T11:43:37.309Z,13392.00
2019-02-21T11:44:37.256Z,12848.00
2019-02-21T11:45:37.253Z,11644.00
2019-02-21T11:46:37.231Z,11236.00
2019-02-21T11:47:37.248Z,11004.00
2019-02-21T11:48:37.209Z,10828.00
2019-02-21T11:49:37.203Z,10688.00
2019-02-21T11:50:37.226Z,10616.00
2019-02-21T11:51:37.175Z,10448.00
2019-02-21T11:52:37.249Z,10240.00
2019-02-21T11:53:38.087Z,9964.00
2019-02-21T11:54:37.150Z,9716.00
2019-02-21T11:55:37.133Z,10008.00
2019-02-21T11:56:37.120Z,9784.00
2019-02-21T11:57:37.137Z,10248.00
2019-02-21T11:58:37.098Z,10680.00
2019-02-21T11:59:37.101Z,10672.00
2019-02-21T12:00:37.076Z,11092.00
2019-02-21T12:01:39.621Z,10808.00
2019-02-21T12:02:39.075Z,10448.00
2019-02-21T12:03:37.042Z,10288.00
2019-02-21T12:04:37.031Z,10396.00
2019-02-21T12:05:37.019Z,10868.00
2019-02-21T12:06:37.027Z,11320.00
2019-02-21T12:07:37.021Z,11444.00
2019-02-21T12:08:36.985Z,11244.00
2019-02-21T12:09:36.979Z,10900.00
2019-02-21T12:10:36.963Z,10440.00
2019-02-21T12:11:36.952Z,10120.00
2019-02-21T12:12:36.966Z,9836.00
2019-02-21T12:13:36.930Z,9740.00
2019-02-21T12:14:36.921Z,9632.00
2019-02-21T12:15:36.938Z,9504.00
2019-02-21T12:16:36.934Z,9464.00
2019-02-21T12:17:36.920Z,9524.00
2019-02-21T12:18:36.874Z,9596.00
2019-02-21T12:19:36.862Z,9652.00
2019-02-21T12:20:36.851Z,9556.00
2019-02-21T12:21:36.842Z,9856.00
2019-02-21T12:22:36.850Z,9968.00
2019-02-21T12:23:36.843Z,10012.00
2019-02-21T12:24:36.808Z,9728.00
2019-02-21T12:25:36.805Z,9576.00
2019-02-21T12:26:36.805Z,9052.00
2019-02-21T12:27:36.774Z,8940.00
2019-02-21T12:28:36.797Z,9664.00
2019-02-21T12:29:36.766Z,10380.00
2019-02-21T12:30:36.755Z,9576.00
2019-02-21T12:31:36.730Z,8432.00
2019-02-21T12:32:36.721Z,7948.00
2019-02-21T12:33:36.732Z,8216.00
2019-02-21T12:34:36.837Z,9088.00
2019-02-21T12:35:36.693Z,10460.00
2019-02-21T12:36:36.676Z,11852.00
2019-02-21T12:37:36.673Z,13632.00
2019-02-21T12:38:37.053Z,14088.00
2019-02-21T12:39:36.768Z,13648.00